PWSweather.com
Personal Weather Stations
Station Observations
PWSTHORN2
Thornton, Nh Usa, Thornton, NH 03285

Thornton, Nh UsaThornton, NH 03285

Lat: 43.8870699, Lon: -71.6632763

Elevation: 640

Station Type: Ambient WS 2080

High Low Average
Temperature 83.3°F28.5°C 62.4°F16.9°C 72.1°F22.3°C
Dew Point 55.1°F12.8°C 36.5°F2.5°C 45.1°F7.3°C
Winds 9.8 mph 15.8 kmh Calm Calm 1.0 mph E1.6 kmh E
Wind Gusts 15.2 mph24.5 kmh -- 4.0 mph6.4 kmh
Humidity 38% 38% 38%
Pressure 29.24 in990.2 mb 29.14 in986.8 mb -
Precipitation 0.11 in2.8 mm - -
Hour Temp Dew Point Humidity Winds Wind Gusts Pressure Precip Precip Rate Daily Precip Total
12:00 AM 65.3°F18.5°C 39.1°F3.9°C 38% Calm Calm 2.2 mph3.5 kmh 29.24 in990.2 mb 0.00 in0.0 mm 0.00 in0.0 mm 0.00 in0.0 mm
12:05 AM 65.5°F18.6°C 39.2°F4.0°C 38% Calm Calm 2.2 mph3.5 kmh 29.25 in990.5 mb 0.00 in0.0 mm 0.00 in0.0 mm 0.00 in0.0 mm
12:10 AM 65.3°F18.5°C 39.1°F3.9°C 38% Calm Calm 0.7 mph1.1 kmh 29.23 in989.8 mb 0.00 in0.0 mm 0.00 in0.0 mm 0.00 in0.0 mm
12:15 AM 65.1°F18.4°C 38.9°F3.8°C 38% Calm Calm -- 29.23 in989.8 mb 0.00 in0.0 mm 0.00 in0.0 mm 0.00 in0.0 mm
12:20 AM 64.9°F18.3°C 38.7°F3.7°C 38% Calm Calm -- 29.24 in990.2 mb 0.00 in0.0 mm 0.00 in0.0 mm 0.00 in0.0 mm
12:25 AM 64.8°F18.2°C 38.6°F3.7°C 38% Calm Calm -- 29.23 in989.8 mb 0.00 in0.0 mm 0.00 in0.0 mm 0.00 in0.0 mm
12:30 AM 64.6°F18.1°C 38.4°F3.6°C 38% 0.7 mph E1.1 kmh E 1.6 mph2.6 kmh 29.23 in989.8 mb 0.00 in0.0 mm 0.00 in0.0 mm 0.00 in0.0 mm
12:35 AM 64.6°F18.1°C 38.4°F3.6°C 38% 0.7 mph E1.1 kmh E 1.6 mph2.6 kmh 29.23 in989.8 mb 0.00 in0.0 mm 0.00 in0.0 mm 0.00 in0.0 mm
12:40 AM 64.4°F18.0°C 38.3°F3.5°C 38% Calm Calm 1.6 mph2.6 kmh 29.24 in990.2 mb 0.00 in0.0 mm 0.00 in0.0 mm 0.00 in0.0 mm
12:45 AM 64.4°F18.0°C 38.3°F3.5°C 38% 0.7 mph E1.1 kmh E 1.6 mph2.6 kmh 29.24 in990.2 mb 0.00 in0.0 mm 0.00 in0.0 mm 0.00 in0.0 mm
12:50 AM 64.4°F18.0°C 38.3°F3.5°C 38% 0.7 mph E1.1 kmh E 2.2 mph3.5 kmh 29.24 in990.2 mb 0.00 in0.0 mm 0.00 in0.0 mm 0.00 in0.0 mm
12:55 AM 64.2°F17.9°C 38.1°F3.4°C 38% 1.6 mph E2.6 kmh E 3.1 mph5.0 kmh 29.23 in989.8 mb 0.00 in0.0 mm 0.00 in0.0 mm 0.00 in0.0 mm
01:00 AM 64.2°F17.9°C 38.1°F3.4°C 38% Calm Calm 3.1 mph5.0 kmh 29.24 in990.2 mb 0.00 in0.0 mm 0.00 in0.0 mm 0.00 in0.0 mm
01:05 AM 64.4°F18.0°C 38.3°F3.5°C 38% 0.7 mph E1.1 kmh E 3.1 mph5.0 kmh 29.24 in990.2 mb 0.00 in0.0 mm 0.00 in0.0 mm 0.00 in0.0 mm
01:10 AM 64.2°F17.9°C 38.1°F3.4°C 38% Calm Calm 2.2 mph3.5 kmh 29.23 in989.8 mb 0.00 in0.0 mm 0.00 in0.0 mm 0.00 in0.0 mm
01:15 AM 64.0°F17.8°C 37.9°F3.3°C 38% Calm Calm 2.2 mph3.5 kmh 29.23 in989.8 mb 0.00 in0.0 mm 0.00 in0.0 mm 0.00 in0.0 mm
01:20 AM 63.9°F17.7°C 37.8°F3.2°C 38% 0.7 mph E1.1 kmh E 2.2 mph3.5 kmh 29.24 in990.2 mb 0.00 in0.0 mm 0.00 in0.0 mm 0.00 in0.0 mm
01:25 AM 63.9°F17.7°C 37.8°F3.2°C 38% Calm Calm 2.2 mph3.5 kmh 29.23 in989.8 mb 0.00 in0.0 mm 0.00 in0.0 mm 0.00 in0.0 mm
01:30 AM 63.7°F17.6°C 37.6°F3.1°C 38% Calm Calm 2.2 mph3.5 kmh 29.23 in989.8 mb 0.00 in0.0 mm 0.00 in0.0 mm 0.00 in0.0 mm
01:35 AM 63.9°F17.7°C 37.8°F3.2°C 38% Calm Calm 1.6 mph2.6 kmh 29.23 in989.8 mb 0.00 in0.0 mm 0.00 in0.0 mm 0.00 in0.0 mm
01:40 AM 63.9°F17.7°C 37.8°F3.2°C 38% Calm Calm 1.6 mph2.6 kmh 29.23 in989.8 mb 0.00 in0.0 mm 0.00 in0.0 mm 0.00 in0.0 mm
01:45 AM 63.9°F17.7°C 37.8°F3.2°C 38% 0.7 mph E1.1 kmh E 1.6 mph2.6 kmh 29.22 in989.5 mb 0.00 in0.0 mm 0.00 in0.0 mm 0.00 in0.0 mm
01:50 AM 63.9°F17.7°C 37.8°F3.2°C 38% 0.7 mph E1.1 kmh E 1.6 mph2.6 kmh 29.23 in989.8 mb 0.00 in0.0 mm 0.00 in0.0 mm 0.00 in0.0 mm
01:55 AM 63.3°F17.4°C 37.3°F2.9°C 38% 1.6 mph E2.6 kmh E 2.2 mph3.5 kmh 29.22 in989.5 mb 0.00 in0.0 mm 0.00 in0.0 mm 0.00 in0.0 mm
02:00 AM 63.3°F17.4°C 37.3°F2.9°C 38% Calm Calm 2.2 mph3.5 kmh 29.22 in989.5 mb 0.00 in0.0 mm 0.00 in0.0 mm 0.00 in0.0 mm
02:05 AM 63.3°F17.4°C 37.3°F2.9°C 38% Calm Calm 2.2 mph3.5 kmh 29.23 in989.8 mb 0.00 in0.0 mm 0.00 in0.0 mm 0.00 in0.0 mm
02:10 AM 63.3°F17.4°C 37.3°F2.9°C 38% Calm Calm -- 29.22 in989.5 mb 0.00 in0.0 mm 0.00 in0.0 mm 0.00 in0.0 mm
02:15 AM 63.3°F17.4°C 37.3°F2.9°C 38% Calm Calm -- 29.23 in989.8 mb 0.00 in0.0 mm 0.00 in0.0 mm 0.00 in0.0 mm
02:20 AM 63.1°F17.3°C 37.1°F2.8°C 38% 0.7 mph E1.1 kmh E 1.6 mph2.6 kmh 29.22 in989.5 mb 0.00 in0.0 mm 0.00 in0.0 mm 0.00 in0.0 mm
02:25 AM 63.1°F17.3°C 37.1°F2.8°C 38% Calm Calm 1.6 mph2.6 kmh 29.23 in989.8 mb 0.00 in0.0 mm 0.00 in0.0 mm 0.00 in0.0 mm
02:30 AM 63.0°F17.2°C 37.0°F2.8°C 38% 1.6 mph E2.6 kmh E 2.2 mph3.5 kmh 29.22 in989.5 mb 0.00 in0.0 mm 0.00 in0.0 mm 0.00 in0.0 mm
02:35 AM 63.0°F17.2°C 37.0°F2.8°C 38% Calm Calm 2.2 mph3.5 kmh 29.22 in989.5 mb 0.00 in0.0 mm 0.00 in0.0 mm 0.00 in0.0 mm
02:40 AM 63.0°F17.2°C 37.0°F2.8°C 38% Calm Calm 2.2 mph3.5 kmh 29.22 in989.5 mb 0.00 in0.0 mm 0.00 in0.0 mm 0.00 in0.0 mm
02:45 AM 62.8°F17.1°C 36.8°F2.7°C 38% 1.6 mph E2.6 kmh E 3.1 mph5.0 kmh 29.22 in989.5 mb 0.00 in0.0 mm 0.00 in0.0 mm 0.00 in0.0 mm
02:50 AM 62.8°F17.1°C 36.8°F2.7°C 38% Calm Calm 3.1 mph5.0 kmh 29.21 in989.2 mb 0.00 in0.0 mm 0.00 in0.0 mm 0.00 in0.0 mm
02:55 AM 62.8°F17.1°C 36.8°F2.7°C 38% Calm Calm 3.1 mph5.0 kmh 29.21 in989.2 mb 0.00 in0.0 mm 0.00 in0.0 mm 0.00 in0.0 mm
03:00 AM 62.8°F17.1°C 36.8°F2.7°C 38% Calm Calm 2.2 mph3.5 kmh 29.22 in989.5 mb 0.00 in0.0 mm 0.00 in0.0 mm 0.00 in0.0 mm
03:05 AM 62.8°F17.1°C 36.8°F2.7°C 38% Calm Calm 2.2 mph3.5 kmh 29.21 in989.2 mb 0.00 in0.0 mm 0.00 in0.0 mm 0.00 in0.0 mm
03:10 AM 62.8°F17.1°C 36.8°F2.7°C 38% Calm Calm 2.2 mph3.5 kmh 29.21 in989.2 mb 0.00 in0.0 mm 0.00 in0.0 mm 0.00 in0.0 mm
03:15 AM 62.8°F17.1°C 36.8°F2.7°C 38% 1.6 mph E2.6 kmh E 2.2 mph3.5 kmh 29.21 in989.2 mb 0.00 in0.0 mm 0.00 in0.0 mm 0.00 in0.0 mm
03:20 AM 62.8°F17.1°C 36.8°F2.7°C 38% 0.7 mph E1.1 kmh E 2.2 mph3.5 kmh 29.21 in989.2 mb 0.00 in0.0 mm 0.00 in0.0 mm 0.00 in0.0 mm
03:25 AM 62.8°F17.1°C 36.8°F2.7°C 38% Calm Calm 2.2 mph3.5 kmh 29.21 in989.2 mb 0.00 in0.0 mm 0.00 in0.0 mm 0.00 in0.0 mm
03:30 AM 62.8°F17.1°C 36.8°F2.7°C 38% 1.6 mph E2.6 kmh E 2.2 mph3.5 kmh 29.20 in988.8 mb 0.00 in0.0 mm 0.00 in0.0 mm 0.00 in0.0 mm
03:35 AM 62.4°F16.9°C 36.5°F2.5°C 38% Calm Calm 2.2 mph3.5 kmh 29.20 in988.8 mb 0.00 in0.0 mm 0.00 in0.0 mm 0.00 in0.0 mm
03:40 AM 62.4°F16.9°C 36.5°F2.5°C 38% Calm Calm 2.2 mph3.5 kmh 29.20 in988.8 mb 0.00 in0.0 mm 0.00 in0.0 mm 0.00 in0.0 mm
03:45 AM 62.4°F16.9°C 36.5°F2.5°C 38% 1.6 mph E2.6 kmh E 3.1 mph5.0 kmh 29.20 in988.8 mb 0.00 in0.0 mm 0.00 in0.0 mm 0.00 in0.0 mm
03:50 AM 62.4°F16.9°C 36.5°F2.5°C 38% 1.6 mph E2.6 kmh E 3.1 mph5.0 kmh 29.20 in988.8 mb 0.00 in0.0 mm 0.00 in0.0 mm 0.00 in0.0 mm
03:55 AM 62.6°F17.0°C 36.7°F2.6°C 38% 0.7 mph E1.1 kmh E 3.1 mph5.0 kmh 29.20 in988.8 mb 0.00 in0.0 mm 0.00 in0.0 mm 0.00 in0.0 mm
04:00 AM 62.8°F17.1°C 36.8°F2.7°C 38% 0.7 mph E1.1 kmh E 3.1 mph5.0 kmh 29.20 in988.8 mb 0.00 in0.0 mm 0.00 in0.0 mm 0.00 in0.0 mm
04:05 AM 62.8°F17.1°C 36.8°F2.7°C 38% 0.7 mph E1.1 kmh E 1.6 mph2.6 kmh 29.20 in988.8 mb 0.00 in0.0 mm 0.00 in0.0 mm 0.00 in0.0 mm
04:10 AM 62.8°F17.1°C 36.8°F2.7°C 38% 1.6 mph E2.6 kmh E 3.1 mph5.0 kmh 29.20 in988.8 mb 0.00 in0.0 mm 0.00 in0.0 mm 0.00 in0.0 mm
04:15 AM 62.8°F17.1°C 36.8°F2.7°C 38% 1.6 mph E2.6 kmh E 3.1 mph5.0 kmh 29.20 in988.8 mb 0.00 in0.0 mm 0.00 in0.0 mm 0.00 in0.0 mm
04:20 AM 63.0°F17.2°C 37.0°F2.8°C 38% 0.7 mph E1.1 kmh E 3.1 mph5.0 kmh 29.20 in988.8 mb 0.00 in0.0 mm 0.00 in0.0 mm 0.00 in0.0 mm
04:25 AM 63.0°F17.2°C 37.0°F2.8°C 38% Calm Calm 2.2 mph3.5 kmh 29.20 in988.8 mb 0.00 in0.0 mm 0.00 in0.0 mm 0.00 in0.0 mm
04:30 AM 62.8°F17.1°C 36.8°F2.7°C 38% Calm Calm 2.2 mph3.5 kmh 29.20 in988.8 mb 0.00 in0.0 mm 0.00 in0.0 mm 0.00 in0.0 mm
04:35 AM 63.0°F17.2°C 37.0°F2.8°C 38% Calm Calm 1.6 mph2.6 kmh 29.20 in988.8 mb 0.00 in0.0 mm 0.00 in0.0 mm 0.00 in0.0 mm
04:40 AM 62.8°F17.1°C 36.8°F2.7°C 38% Calm Calm 1.6 mph2.6 kmh 29.20 in988.8 mb 0.00 in0.0 mm 0.00 in0.0 mm 0.00 in0.0 mm
04:45 AM 63.0°F17.2°C 37.0°F2.8°C 38% Calm Calm 0.7 mph1.1 kmh 29.20 in988.8 mb 0.00 in0.0 mm 0.00 in0.0 mm 0.00 in0.0 mm
04:50 AM 63.0°F17.2°C 37.0°F2.8°C 38% Calm Calm 1.6 mph2.6 kmh 29.20 in988.8 mb 0.00 in0.0 mm 0.00 in0.0 mm 0.00 in0.0 mm
04:55 AM 63.0°F17.2°C 37.0°F2.8°C 38% Calm Calm 1.6 mph2.6 kmh 29.20 in988.8 mb 0.00 in0.0 mm 0.00 in0.0 mm 0.00 in0.0 mm
05:00 AM 63.0°F17.2°C 37.0°F2.8°C 38% Calm Calm 1.6 mph2.6 kmh 29.20 in988.8 mb 0.00 in0.0 mm 0.00 in0.0 mm 0.00 in0.0 mm
05:05 AM 63.0°F17.2°C 37.0°F2.8°C 38% Calm Calm 1.6 mph2.6 kmh 29.20 in988.8 mb 0.00 in0.0 mm 0.00 in0.0 mm 0.00 in0.0 mm
05:10 AM 63.0°F17.2°C 37.0°F2.8°C 38% 0.7 mph E1.1 kmh E 1.6 mph2.6 kmh 29.20 in988.8 mb 0.00 in0.0 mm 0.00 in0.0 mm 0.00 in0.0 mm
05:15 AM 63.1°F17.3°C 37.1°F2.8°C 38% Calm Calm 1.6 mph2.6 kmh 29.20 in988.8 mb 0.00 in0.0 mm 0.00 in0.0 mm 0.00 in0.0 mm
05:20 AM 63.1°F17.3°C 37.1°F2.8°C 38% Calm Calm 1.6 mph2.6 kmh 29.20 in988.8 mb 0.00 in0.0 mm 0.00 in0.0 mm 0.00 in0.0 mm
05:25 AM 63.1°F17.3°C 37.1°F2.8°C 38% 0.7 mph E1.1 kmh E 2.2 mph3.5 kmh 29.20 in988.8 mb 0.00 in0.0 mm 0.00 in0.0 mm 0.00 in0.0 mm
05:30 AM 63.1°F17.3°C 37.1°F2.8°C 38% Calm Calm 2.2 mph3.5 kmh 29.20 in988.8 mb 0.00 in0.0 mm 0.00 in0.0 mm 0.00 in0.0 mm
05:35 AM 63.1°F17.3°C 37.1°F2.8°C 38% Calm Calm 1.6 mph2.6 kmh 29.20 in988.8 mb 0.00 in0.0 mm 0.00 in0.0 mm 0.00 in0.0 mm
05:40 AM 63.3°F17.4°C 37.3°F2.9°C 38% Calm Calm 1.6 mph2.6 kmh 29.20 in988.8 mb 0.00 in0.0 mm 0.00 in0.0 mm 0.00 in0.0 mm
05:45 AM 63.3°F17.4°C 37.3°F2.9°C 38% Calm Calm 2.2 mph3.5 kmh 29.20 in988.8 mb 0.00 in0.0 mm 0.00 in0.0 mm 0.00 in0.0 mm
05:50 AM 63.5°F17.5°C 37.5°F3.1°C 38% Calm Calm 2.2 mph3.5 kmh 29.20 in988.8 mb 0.00 in0.0 mm 0.00 in0.0 mm 0.00 in0.0 mm
05:55 AM 63.5°F17.5°C 37.5°F3.1°C 38% 1.6 mph E2.6 kmh E 2.2 mph3.5 kmh 29.20 in988.8 mb 0.00 in0.0 mm 0.00 in0.0 mm 0.00 in0.0 mm
06:00 AM 63.5°F17.5°C 37.5°F3.1°C 38% 0.7 mph E1.1 kmh E 3.1 mph5.0 kmh 29.20 in988.8 mb 0.00 in0.0 mm 0.00 in0.0 mm 0.00 in0.0 mm
06:05 AM 63.7°F17.6°C 37.6°F3.1°C 38% Calm Calm 3.1 mph5.0 kmh 29.20 in988.8 mb 0.00 in0.0 mm 0.00 in0.0 mm 0.00 in0.0 mm
06:10 AM 63.9°F17.7°C 37.8°F3.2°C 38% Calm Calm 2.2 mph3.5 kmh 29.20 in988.8 mb 0.00 in0.0 mm 0.00 in0.0 mm 0.00 in0.0 mm
06:15 AM 63.9°F17.7°C 37.8°F3.2°C 38% 0.7 mph E1.1 kmh E 1.6 mph2.6 kmh 29.20 in988.8 mb 0.00 in0.0 mm 0.00 in0.0 mm 0.00 in0.0 mm
06:20 AM 64.0°F17.8°C 37.9°F3.3°C 38% Calm Calm 1.6 mph2.6 kmh 29.20 in988.8 mb 0.00 in0.0 mm 0.00 in0.0 mm 0.00 in0.0 mm
06:25 AM 64.0°F17.8°C 37.9°F3.3°C 38% Calm Calm 1.6 mph2.6 kmh 29.20 in988.8 mb 0.00 in0.0 mm 0.00 in0.0 mm 0.00 in0.0 mm
06:30 AM 64.2°F17.9°C 38.1°F3.4°C 38% Calm Calm 1.6 mph2.6 kmh 29.20 in988.8 mb 0.00 in0.0 mm 0.00 in0.0 mm 0.00 in0.0 mm
06:35 AM 64.2°F17.9°C 38.1°F3.4°C 38% Calm Calm 3.8 mph6.1 kmh 29.21 in989.2 mb 0.00 in0.0 mm 0.00 in0.0 mm 0.00 in0.0 mm
06:40 AM 64.2°F17.9°C 38.1°F3.4°C 38% Calm Calm 3.8 mph6.1 kmh 29.20 in988.8 mb 0.00 in0.0 mm 0.00 in0.0 mm 0.00 in0.0 mm
06:45 AM 64.4°F18.0°C 38.3°F3.5°C 38% Calm Calm 2.2 mph3.5 kmh 29.21 in989.2 mb 0.01 in0.3 mm 0.12 in3.0 mm 0.01 in0.3 mm
06:50 AM 64.4°F18.0°C 38.3°F3.5°C 38% 0.7 mph E1.1 kmh E 2.2 mph3.5 kmh 29.21 in989.2 mb 0.01 in0.3 mm 0.00 in0.0 mm 0.01 in0.3 mm
06:55 AM 64.4°F18.0°C 38.3°F3.5°C 38% Calm Calm 3.8 mph6.1 kmh 29.21 in989.2 mb 0.01 in0.3 mm 0.00 in0.0 mm 0.01 in0.3 mm
07:00 AM 64.4°F18.0°C 38.3°F3.5°C 38% Calm Calm 3.8 mph6.1 kmh 29.20 in988.8 mb 0.01 in0.3 mm 0.00 in0.0 mm 0.01 in0.3 mm
07:05 AM 64.4°F18.0°C 38.3°F3.5°C 38% Calm Calm 2.2 mph3.5 kmh 29.21 in989.2 mb 0.01 in0.3 mm 0.00 in0.0 mm 0.01 in0.3 mm
07:10 AM 64.6°F18.1°C 38.4°F3.6°C 38% 2.2 mph E3.5 kmh E 3.8 mph6.1 kmh 29.20 in988.8 mb 0.01 in0.3 mm 0.00 in0.0 mm 0.01 in0.3 mm
07:15 AM 64.6°F18.1°C 38.4°F3.6°C 38% 1.6 mph E2.6 kmh E 4.5 mph7.2 kmh 29.21 in989.2 mb 0.01 in0.3 mm 0.00 in0.0 mm 0.01 in0.3 mm
07:20 AM 64.8°F18.2°C 38.6°F3.7°C 38% 0.7 mph E1.1 kmh E 4.5 mph7.2 kmh 29.21 in989.2 mb 0.01 in0.3 mm 0.00 in0.0 mm 0.01 in0.3 mm
07:25 AM 64.8°F18.2°C 38.6°F3.7°C 38% 2.2 mph E3.5 kmh E 4.5 mph7.2 kmh 29.20 in988.8 mb 0.01 in0.3 mm 0.00 in0.0 mm 0.01 in0.3 mm
07:30 AM 64.9°F18.3°C 38.7°F3.7°C 38% Calm Calm 4.5 mph7.2 kmh 29.21 in989.2 mb 0.02 in0.5 mm 0.12 in3.0 mm 0.02 in0.5 mm
07:35 AM 64.9°F18.3°C 38.7°F3.7°C 38% 3.1 mph E5.0 kmh E 4.5 mph7.2 kmh 29.21 in989.2 mb 0.02 in0.5 mm 0.00 in0.0 mm 0.02 in0.5 mm
07:40 AM 64.9°F18.3°C 38.7°F3.7°C 38% 0.7 mph E1.1 kmh E 5.4 mph8.7 kmh 29.21 in989.2 mb 0.02 in0.5 mm 0.00 in0.0 mm 0.02 in0.5 mm
07:45 AM 64.9°F18.3°C 38.7°F3.7°C 38% Calm Calm 5.4 mph8.7 kmh 29.21 in989.2 mb 0.04 in1.0 mm 0.24 in6.1 mm 0.05 in1.3 mm
07:50 AM 65.3°F18.5°C 39.1°F3.9°C 38% 0.7 mph E1.1 kmh E 2.2 mph3.5 kmh 29.21 in989.2 mb 0.04 in1.0 mm 0.00 in0.0 mm 0.05 in1.3 mm
07:55 AM 65.5°F18.6°C 39.2°F4.0°C 38% 1.6 mph E2.6 kmh E 2.2 mph3.5 kmh 29.21 in989.2 mb 0.05 in1.3 mm 0.12 in3.0 mm 0.06 in1.5 mm
08:00 AM 65.5°F18.6°C 39.2°F4.0°C 38% Calm Calm 2.2 mph3.5 kmh 29.21 in989.2 mb 0.05 in1.3 mm 0.00 in0.0 mm 0.06 in1.5 mm
08:05 AM 65.7°F18.7°C 39.4°F4.1°C 38% 0.7 mph E1.1 kmh E 2.2 mph3.5 kmh 29.21 in989.2 mb 0.05 in1.3 mm 0.00 in0.0 mm 0.06 in1.5 mm
08:10 AM 65.7°F18.7°C 39.4°F4.1°C 38% 0.7 mph E1.1 kmh E 2.2 mph3.5 kmh 29.21 in989.2 mb 0.06 in1.5 mm 0.12 in3.0 mm 0.07 in1.8 mm
08:15 AM 65.7°F18.7°C 39.4°F4.1°C 38% 0.7 mph E1.1 kmh E 2.2 mph3.5 kmh 29.21 in989.2 mb 0.06 in1.5 mm 0.00 in0.0 mm 0.07 in1.8 mm
08:20 AM 65.8°F18.8°C 39.5°F4.2°C 38% Calm Calm 2.2 mph3.5 kmh 29.21 in989.2 mb 0.06 in1.5 mm 0.00 in0.0 mm 0.07 in1.8 mm
08:25 AM 65.8°F18.8°C 39.5°F4.2°C 38% 1.6 mph E2.6 kmh E 3.1 mph5.0 kmh 29.21 in989.2 mb 0.06 in1.5 mm 0.00 in0.0 mm 0.07 in1.8 mm
08:30 AM 65.8°F18.8°C 39.5°F4.2°C 38% 0.7 mph E1.1 kmh E 3.1 mph5.0 kmh 29.21 in989.2 mb 0.06 in1.5 mm 0.00 in0.0 mm 0.08 in2.0 mm
08:35 AM 65.8°F18.8°C 39.5°F4.2°C 38% Calm Calm 3.1 mph5.0 kmh 29.22 in989.5 mb 0.06 in1.5 mm 0.00 in0.0 mm 0.08 in2.0 mm
08:40 AM 65.8°F18.8°C 39.5°F4.2°C 38% 0.7 mph E1.1 kmh E 2.2 mph3.5 kmh 29.22 in989.5 mb 0.06 in1.5 mm 0.00 in0.0 mm 0.08 in2.0 mm
08:45 AM 65.8°F18.8°C 39.5°F4.2°C 38% Calm Calm 2.2 mph3.5 kmh 29.22 in989.5 mb 0.05 in1.3 mm 0.00 in0.0 mm 0.09 in2.3 mm
08:50 AM 65.8°F18.8°C 39.5°F4.2°C 38% 0.7 mph E1.1 kmh E 2.2 mph3.5 kmh 29.21 in989.2 mb 0.05 in1.3 mm 0.00 in0.0 mm 0.09 in2.3 mm
08:55 AM 66.4°F19.1°C 40.0°F4.4°C 38% 2.2 mph E3.5 kmh E 3.1 mph5.0 kmh 29.21 in989.2 mb 0.04 in1.0 mm 0.00 in0.0 mm 0.09 in2.3 mm
09:00 AM 66.4°F19.1°C 40.0°F4.4°C 38% 1.6 mph E2.6 kmh E 3.8 mph6.1 kmh 29.21 in989.2 mb 0.04 in1.0 mm 0.00 in0.0 mm 0.09 in2.3 mm
09:05 AM 66.6°F19.2°C 40.2°F4.6°C 38% Calm Calm 3.8 mph6.1 kmh 29.21 in989.2 mb 0.04 in1.0 mm 0.00 in0.0 mm 0.09 in2.3 mm
09:10 AM 67.6°F19.8°C 41.1°F5.1°C 38% 0.7 mph E1.1 kmh E 3.8 mph6.1 kmh 29.22 in989.5 mb 0.02 in0.5 mm 0.00 in0.0 mm 0.09 in2.3 mm
09:15 AM 68.4°F20.2°C 41.8°F5.4°C 38% 0.7 mph E1.1 kmh E 2.2 mph3.5 kmh 29.21 in989.2 mb 0.02 in0.5 mm 0.00 in0.0 mm 0.09 in2.3 mm
09:20 AM 69.1°F20.6°C 42.4°F5.8°C 38% Calm Calm 2.2 mph3.5 kmh 29.21 in989.2 mb 0.02 in0.5 mm 0.00 in0.0 mm 0.09 in2.3 mm
09:25 AM 70.0°F21.1°C 43.2°F6.2°C 38% Calm Calm 2.2 mph3.5 kmh 29.22 in989.5 mb 0.02 in0.5 mm 0.00 in0.0 mm 0.09 in2.3 mm
09:30 AM 70.0°F21.1°C 43.2°F6.2°C 38% 0.7 mph E1.1 kmh E 2.2 mph3.5 kmh 29.21 in989.2 mb 0.01 in0.3 mm 0.00 in0.0 mm 0.09 in2.3 mm
09:35 AM 69.8°F21.0°C 43.1°F6.2°C 38% Calm Calm 2.2 mph3.5 kmh 29.21 in989.2 mb 0.01 in0.3 mm 0.00 in0.0 mm 0.09 in2.3 mm
09:40 AM 69.8°F21.0°C 43.1°F6.2°C 38% 0.7 mph E1.1 kmh E 2.2 mph3.5 kmh 29.21 in989.2 mb 0.00 in0.0 mm 0.00 in0.0 mm 0.09 in2.3 mm
09:45 AM 70.0°F21.1°C 43.2°F6.2°C 38% 0.7 mph E1.1 kmh E 3.1 mph5.0 kmh 29.21 in989.2 mb 0.00 in0.0 mm 0.00 in0.0 mm 0.09 in2.3 mm
09:50 AM 70.3°F21.3°C 43.6°F6.4°C 38% 0.7 mph E1.1 kmh E 3.1 mph5.0 kmh 29.20 in988.8 mb 0.00 in0.0 mm 0.00 in0.0 mm 0.09 in2.3 mm
09:55 AM 70.9°F21.6°C 44.0°F6.7°C 38% Calm Calm 3.1 mph5.0 kmh 29.20 in988.8 mb 0.00 in0.0 mm 0.00 in0.0 mm 0.09 in2.3 mm
10:00 AM 70.9°F21.6°C 44.0°F6.7°C 38% Calm Calm 3.1 mph5.0 kmh 29.20 in988.8 mb 0.00 in0.0 mm 0.00 in0.0 mm 0.09 in2.3 mm
10:05 AM 70.9°F21.6°C 44.0°F6.7°C 38% Calm Calm 3.8 mph6.1 kmh 29.20 in988.8 mb 0.00 in0.0 mm 0.00 in0.0 mm 0.09 in2.3 mm
10:10 AM 71.2°F21.8°C 44.4°F6.9°C 38% 1.6 mph E2.6 kmh E 3.8 mph6.1 kmh 29.20 in988.8 mb 0.00 in0.0 mm 0.00 in0.0 mm 0.09 in2.3 mm
10:15 AM 71.8°F22.1°C 44.8°F7.1°C 38% 0.7 mph E1.1 kmh E 3.1 mph5.0 kmh 29.20 in988.8 mb 0.00 in0.0 mm 0.00 in0.0 mm 0.09 in2.3 mm
10:20 AM 72.5°F22.5°C 45.5°F7.5°C 38% 2.2 mph E3.5 kmh E 3.8 mph6.1 kmh 29.21 in989.2 mb 0.00 in0.0 mm 0.00 in0.0 mm 0.09 in2.3 mm
10:25 AM 72.9°F22.7°C 45.8°F7.7°C 38% Calm Calm 3.8 mph6.1 kmh 29.21 in989.2 mb 0.00 in0.0 mm 0.00 in0.0 mm 0.09 in2.3 mm
10:30 AM 73.4°F23.0°C 46.3°F7.9°C 38% Calm Calm 3.1 mph5.0 kmh 29.20 in988.8 mb 0.00 in0.0 mm 0.00 in0.0 mm 0.09 in2.3 mm
10:35 AM 73.4°F23.0°C 46.3°F7.9°C 38% 0.7 mph E1.1 kmh E 2.2 mph3.5 kmh 29.20 in988.8 mb 0.00 in0.0 mm 0.00 in0.0 mm 0.09 in2.3 mm
10:40 AM 73.4°F23.0°C 46.3°F7.9°C 38% 0.7 mph E1.1 kmh E 1.6 mph2.6 kmh 29.20 in988.8 mb 0.00 in0.0 mm 0.00 in0.0 mm 0.09 in2.3 mm
10:45 AM 73.8°F23.2°C 46.6°F8.1°C 38% 0.7 mph E1.1 kmh E 1.6 mph2.6 kmh 29.20 in988.8 mb 0.00 in0.0 mm 0.00 in0.0 mm 0.09 in2.3 mm
10:50 AM 73.9°F23.3°C 46.8°F8.2°C 38% Calm Calm 1.6 mph2.6 kmh 29.20 in988.8 mb 0.00 in0.0 mm 0.00 in0.0 mm 0.09 in2.3 mm
10:55 AM 73.9°F23.3°C 46.8°F8.2°C 38% 1.6 mph E2.6 kmh E 3.1 mph5.0 kmh 29.20 in988.8 mb 0.00 in0.0 mm 0.00 in0.0 mm 0.09 in2.3 mm
11:00 AM 74.1°F23.4°C 46.9°F8.3°C 38% 0.7 mph E1.1 kmh E 3.1 mph5.0 kmh 29.19 in988.5 mb 0.00 in0.0 mm 0.00 in0.0 mm 0.09 in2.3 mm
11:05 AM 75.7°F24.3°C 48.4°F9.1°C 38% Calm Calm 3.8 mph6.1 kmh 29.20 in988.8 mb 0.00 in0.0 mm 0.00 in0.0 mm 0.09 in2.3 mm
11:10 AM 76.6°F24.8°C 49.2°F9.6°C 38% Calm Calm 3.8 mph6.1 kmh 29.20 in988.8 mb 0.00 in0.0 mm 0.00 in0.0 mm 0.09 in2.3 mm
11:15 AM 76.6°F24.8°C 49.2°F9.6°C 38% Calm Calm 2.2 mph3.5 kmh 29.20 in988.8 mb 0.00 in0.0 mm 0.00 in0.0 mm 0.09 in2.3 mm
11:20 AM 76.1°F24.5°C 48.7°F9.3°C 38% 1.6 mph E2.6 kmh E 3.1 mph5.0 kmh 29.20 in988.8 mb 0.00 in0.0 mm 0.00 in0.0 mm 0.09 in2.3 mm
11:25 AM 75.7°F24.3°C 48.4°F9.1°C 38% Calm Calm 3.1 mph5.0 kmh 29.20 in988.8 mb 0.00 in0.0 mm 0.00 in0.0 mm 0.09 in2.3 mm
11:30 AM 76.5°F24.7°C 49.0°F9.4°C 38% 0.7 mph E1.1 kmh E 3.1 mph5.0 kmh 29.19 in988.5 mb 0.00 in0.0 mm 0.00 in0.0 mm 0.09 in2.3 mm
11:35 AM 77.2°F25.1°C 49.6°F9.8°C 38% Calm Calm 1.6 mph2.6 kmh 29.20 in988.8 mb 0.00 in0.0 mm 0.00 in0.0 mm 0.09 in2.3 mm
11:40 AM 77.7°F25.4°C 50.1°F10.1°C 38% 0.7 mph E1.1 kmh E 2.2 mph3.5 kmh 29.20 in988.8 mb 0.00 in0.0 mm 0.00 in0.0 mm 0.09 in2.3 mm
11:45 AM 77.5°F25.3°C 50.0°F10.0°C 38% 0.7 mph E1.1 kmh E 2.2 mph3.5 kmh 29.20 in988.8 mb 0.00 in0.0 mm 0.00 in0.0 mm 0.09 in2.3 mm
11:50 AM 77.0°F25.0°C 49.5°F9.7°C 38% 0.7 mph E1.1 kmh E 2.2 mph3.5 kmh 29.20 in988.8 mb 0.00 in0.0 mm 0.00 in0.0 mm 0.09 in2.3 mm
11:55 AM 77.0°F25.0°C 49.5°F9.7°C 38% Calm Calm 2.2 mph3.5 kmh 29.20 in988.8 mb 0.00 in0.0 mm 0.00 in0.0 mm 0.09 in2.3 mm
12:00 PM 77.2°F25.1°C 49.6°F9.8°C 38% 1.6 mph E2.6 kmh E 2.2 mph3.5 kmh 29.20 in988.8 mb 0.00 in0.0 mm 0.00 in0.0 mm 0.09 in2.3 mm
12:05 PM 77.9°F25.5°C 50.3°F10.2°C 38% 0.7 mph E1.1 kmh E 2.2 mph3.5 kmh 29.19 in988.5 mb 0.00 in0.0 mm 0.00 in0.0 mm 0.09 in2.3 mm
12:10 PM 78.1°F25.6°C 50.4°F10.2°C 38% Calm Calm 3.1 mph5.0 kmh 29.19 in988.5 mb 0.00 in0.0 mm 0.00 in0.0 mm 0.09 in2.3 mm
12:15 PM 78.1°F25.6°C 50.4°F10.2°C 38% 0.7 mph E1.1 kmh E 3.1 mph5.0 kmh 29.19 in988.5 mb 0.00 in0.0 mm 0.00 in0.0 mm 0.09 in2.3 mm
12:20 PM 78.6°F25.9°C 50.9°F10.5°C 38% 1.6 mph E2.6 kmh E 3.8 mph6.1 kmh 29.19 in988.5 mb 0.00 in0.0 mm 0.00 in0.0 mm 0.09 in2.3 mm
12:25 PM 78.6°F25.9°C 50.9°F10.5°C 38% 1.6 mph E2.6 kmh E 5.4 mph8.7 kmh 29.19 in988.5 mb 0.00 in0.0 mm 0.00 in0.0 mm 0.09 in2.3 mm
12:30 PM 78.8°F26.0°C 51.1°F10.6°C 38% 3.1 mph E5.0 kmh E 6.0 mph9.7 kmh 29.19 in988.5 mb 0.00 in0.0 mm 0.00 in0.0 mm 0.09 in2.3 mm
12:35 PM 79.3°F26.3°C 51.6°F10.9°C 38% 0.7 mph E1.1 kmh E 6.0 mph9.7 kmh 29.19 in988.5 mb 0.00 in0.0 mm 0.00 in0.0 mm 0.09 in2.3 mm
12:40 PM 79.7°F26.5°C 51.9°F11.1°C 38% 3.8 mph E6.1 kmh E 6.0 mph9.7 kmh 29.19 in988.5 mb 0.00 in0.0 mm 0.00 in0.0 mm 0.09 in2.3 mm
12:45 PM 80.1°F26.7°C 52.2°F11.2°C 38% 1.6 mph E2.6 kmh E 6.0 mph9.7 kmh 29.18 in988.1 mb 0.00 in0.0 mm 0.00 in0.0 mm 0.09 in2.3 mm
12:50 PM 80.6°F27.0°C 52.7°F11.5°C 38% 0.7 mph E1.1 kmh E 5.4 mph8.7 kmh 29.18 in988.1 mb 0.00 in0.0 mm 0.00 in0.0 mm 0.09 in2.3 mm
12:55 PM 81.3°F27.4°C 53.3°F11.8°C 38% Calm Calm 4.5 mph7.2 kmh 29.18 in988.1 mb 0.00 in0.0 mm 0.00 in0.0 mm 0.09 in2.3 mm
01:00 PM 82.2°F27.9°C 54.1°F12.3°C 38% 2.2 mph E3.5 kmh E 4.5 mph7.2 kmh 29.18 in988.1 mb 0.00 in0.0 mm 0.00 in0.0 mm 0.09 in2.3 mm
01:05 PM 81.9°F27.7°C 53.8°F12.1°C 38% 2.2 mph E3.5 kmh E 4.5 mph7.2 kmh 29.18 in988.1 mb 0.00 in0.0 mm 0.00 in0.0 mm 0.09 in2.3 mm
01:10 PM 82.0°F27.8°C 54.0°F12.2°C 38% 1.6 mph E2.6 kmh E 5.4 mph8.7 kmh 29.18 in988.1 mb 0.00 in0.0 mm 0.00 in0.0 mm 0.09 in2.3 mm
01:15 PM 82.4°F28.0°C 54.3°F12.4°C 38% 3.1 mph E5.0 kmh E 7.6 mph12.2 kmh 29.18 in988.1 mb 0.00 in0.0 mm 0.00 in0.0 mm 0.09 in2.3 mm
01:20 PM 82.4°F28.0°C 54.3°F12.4°C 38% 1.6 mph E2.6 kmh E 7.6 mph12.2 kmh 29.18 in988.1 mb 0.00 in0.0 mm 0.00 in0.0 mm 0.09 in2.3 mm
01:25 PM 82.8°F28.2°C 54.6°F12.6°C 38% 2.2 mph E3.5 kmh E 6.0 mph9.7 kmh 29.18 in988.1 mb 0.00 in0.0 mm 0.00 in0.0 mm 0.09 in2.3 mm
01:30 PM 82.8°F28.2°C 54.6°F12.6°C 38% 5.4 mph E8.7 kmh E 8.3 mph13.4 kmh 29.18 in988.1 mb 0.00 in0.0 mm 0.00 in0.0 mm 0.09 in2.3 mm
01:40 PM 82.0°F27.8°C 54.0°F12.2°C 38% 7.6 mph E12.2 kmh E 11.4 mph18.3 kmh 29.17 in987.8 mb 0.00 in0.0 mm 0.00 in0.0 mm 0.09 in2.3 mm
01:45 PM 82.6°F28.1°C 54.4°F12.4°C 38% 6.9 mph E11.1 kmh E 11.4 mph18.3 kmh 29.18 in988.1 mb 0.00 in0.0 mm 0.00 in0.0 mm 0.09 in2.3 mm
01:50 PM 82.9°F28.3°C 54.8°F12.7°C 38% 6.9 mph E11.1 kmh E 9.8 mph15.8 kmh 29.18 in988.1 mb 0.00 in0.0 mm 0.00 in0.0 mm 0.09 in2.3 mm
01:55 PM 83.3°F28.5°C 55.1°F12.8°C 38% 3.8 mph E6.1 kmh E 10.7 mph17.2 kmh 29.18 in988.1 mb 0.00 in0.0 mm 0.00 in0.0 mm 0.09 in2.3 mm
02:00 PM 83.1°F28.4°C 54.9°F12.7°C 38% 7.6 mph E12.2 kmh E 15.2 mph24.5 kmh 29.18 in988.1 mb 0.00 in0.0 mm 0.00 in0.0 mm 0.09 in2.3 mm
02:05 PM 82.6°F28.1°C 54.4°F12.4°C 38% 3.1 mph E5.0 kmh E 15.2 mph24.5 kmh 29.18 in988.1 mb 0.00 in0.0 mm 0.00 in0.0 mm 0.09 in2.3 mm
02:10 PM 82.9°F28.3°C 54.8°F12.7°C 38% 1.6 mph E2.6 kmh E 10.7 mph17.2 kmh 29.17 in987.8 mb 0.00 in0.0 mm 0.00 in0.0 mm 0.09 in2.3 mm
02:15 PM 82.9°F28.3°C 54.8°F12.7°C 38% 9.8 mph E15.8 kmh E 13.6 mph21.9 kmh 29.18 in988.1 mb 0.00 in0.0 mm 0.00 in0.0 mm 0.09 in2.3 mm
02:20 PM 82.6°F28.1°C 54.4°F12.4°C 38% 4.5 mph E7.2 kmh E 14.5 mph23.3 kmh 29.18 in988.1 mb 0.00 in0.0 mm 0.00 in0.0 mm 0.09 in2.3 mm
02:25 PM 82.6°F28.1°C 54.4°F12.4°C 38% 5.4 mph E8.7 kmh E 14.5 mph23.3 kmh 29.17 in987.8 mb 0.00 in0.0 mm 0.00 in0.0 mm 0.09 in2.3 mm
02:30 PM 82.8°F28.2°C 54.6°F12.6°C 38% 3.1 mph E5.0 kmh E 7.6 mph12.2 kmh 29.17 in987.8 mb 0.00 in0.0 mm 0.00 in0.0 mm 0.09 in2.3 mm
02:35 PM 82.6°F28.1°C 54.4°F12.4°C 38% 5.4 mph E8.7 kmh E 10.7 mph17.2 kmh 29.17 in987.8 mb 0.00 in0.0 mm 0.00 in0.0 mm 0.09 in2.3 mm
02:40 PM 82.4°F28.0°C 54.3°F12.4°C 38% 4.5 mph E7.2 kmh E 10.7 mph17.2 kmh 29.17 in987.8 mb 0.00 in0.0 mm 0.00 in0.0 mm 0.09 in2.3 mm
02:45 PM 82.2°F27.9°C 54.1°F12.3°C 38% 3.8 mph E6.1 kmh E 10.7 mph17.2 kmh 29.17 in987.8 mb 0.00 in0.0 mm 0.00 in0.0 mm 0.09 in2.3 mm
02:50 PM 82.0°F27.8°C 54.0°F12.2°C 38% 7.6 mph E12.2 kmh E 10.7 mph17.2 kmh 29.17 in987.8 mb 0.00 in0.0 mm 0.00 in0.0 mm 0.09 in2.3 mm
02:55 PM 82.0°F27.8°C 54.0°F12.2°C 38% 2.2 mph E3.5 kmh E 9.8 mph15.8 kmh 29.17 in987.8 mb 0.00 in0.0 mm 0.00 in0.0 mm 0.09 in2.3 mm
03:00 PM 81.9°F27.7°C 53.8°F12.1°C 38% 4.5 mph E7.2 kmh E 11.4 mph18.3 kmh 29.17 in987.8 mb 0.00 in0.0 mm 0.00 in0.0 mm 0.09 in2.3 mm
03:05 PM 81.5°F27.5°C 53.5°F11.9°C 38% 3.1 mph E5.0 kmh E 11.4 mph18.3 kmh 29.17 in987.8 mb 0.00 in0.0 mm 0.00 in0.0 mm 0.09 in2.3 mm
03:10 PM 81.3°F27.4°C 53.3°F11.8°C 38% 3.8 mph E6.1 kmh E 9.2 mph14.8 kmh 29.16 in987.5 mb 0.00 in0.0 mm 0.00 in0.0 mm 0.09 in2.3 mm
03:15 PM 81.1°F27.3°C 53.2°F11.8°C 38% 1.6 mph E2.6 kmh E 6.0 mph9.7 kmh 29.16 in987.5 mb 0.00 in0.0 mm 0.00 in0.0 mm 0.09 in2.3 mm
03:20 PM 81.3°F27.4°C 53.3°F11.8°C 38% Calm Calm 6.0 mph9.7 kmh 29.16 in987.5 mb 0.00 in0.0 mm 0.00 in0.0 mm 0.09 in2.3 mm
03:25 PM 81.7°F27.6°C 53.6°F12.0°C 38% Calm Calm 3.1 mph5.0 kmh 29.16 in987.5 mb 0.00 in0.0 mm 0.00 in0.0 mm 0.09 in2.3 mm
03:30 PM 81.3°F27.4°C 53.3°F11.8°C 38% 4.5 mph E7.2 kmh E 5.4 mph8.7 kmh 29.16 in987.5 mb 0.00 in0.0 mm 0.00 in0.0 mm 0.09 in2.3 mm
03:35 PM 80.6°F27.0°C 52.7°F11.5°C 38% 3.8 mph E6.1 kmh E 5.4 mph8.7 kmh 29.16 in987.5 mb 0.00 in0.0 mm 0.00 in0.0 mm 0.09 in2.3 mm
03:40 PM 79.9°F26.6°C 52.0°F11.1°C 38% 2.2 mph E3.5 kmh E 8.3 mph13.4 kmh 29.16 in987.5 mb 0.00 in0.0 mm 0.00 in0.0 mm 0.09 in2.3 mm
03:45 PM 79.7°F26.5°C 51.9°F11.1°C 38% 2.2 mph E3.5 kmh E 8.3 mph13.4 kmh 29.16 in987.5 mb 0.00 in0.0 mm 0.00 in0.0 mm 0.09 in2.3 mm
03:50 PM 79.7°F26.5°C 51.9°F11.1°C 38% Calm Calm 6.0 mph9.7 kmh 29.16 in987.5 mb 0.00 in0.0 mm 0.00 in0.0 mm 0.09 in2.3 mm
03:55 PM 79.9°F26.6°C 52.0°F11.1°C 38% Calm Calm 6.0 mph9.7 kmh 29.15 in987.1 mb 0.00 in0.0 mm 0.00 in0.0 mm 0.09 in2.3 mm
04:00 PM 80.4°F26.9°C 52.5°F11.4°C 38% 0.7 mph E1.1 kmh E 2.2 mph3.5 kmh 29.15 in987.1 mb 0.00 in0.0 mm 0.00 in0.0 mm 0.09 in2.3 mm
04:05 PM 81.0°F27.2°C 53.0°F11.7°C 38% Calm Calm 2.2 mph3.5 kmh 29.16 in987.5 mb 0.00 in0.0 mm 0.00 in0.0 mm 0.09 in2.3 mm
04:10 PM 82.0°F27.8°C 54.0°F12.2°C 38% 2.2 mph E3.5 kmh E 3.1 mph5.0 kmh 29.15 in987.1 mb 0.00 in0.0 mm 0.00 in0.0 mm 0.09 in2.3 mm
04:15 PM 81.3°F27.4°C 53.3°F11.8°C 38% 2.2 mph E3.5 kmh E 3.8 mph6.1 kmh 29.14 in986.8 mb 0.00 in0.0 mm 0.00 in0.0 mm 0.09 in2.3 mm
04:20 PM 81.1°F27.3°C 53.2°F11.8°C 38% 0.7 mph E1.1 kmh E 3.8 mph6.1 kmh 29.14 in986.8 mb 0.00 in0.0 mm 0.00 in0.0 mm 0.09 in2.3 mm
04:25 PM 81.0°F27.2°C 53.0°F11.7°C 38% 2.2 mph E3.5 kmh E 3.8 mph6.1 kmh 29.14 in986.8 mb 0.00 in0.0 mm 0.00 in0.0 mm 0.09 in2.3 mm
04:30 PM 81.1°F27.3°C 53.2°F11.8°C 38% 1.6 mph E2.6 kmh E 3.8 mph6.1 kmh 29.14 in986.8 mb 0.00 in0.0 mm 0.00 in0.0 mm 0.09 in2.3 mm
04:35 PM 81.7°F27.6°C 53.6°F12.0°C 38% Calm Calm 3.8 mph6.1 kmh 29.14 in986.8 mb 0.00 in0.0 mm 0.00 in0.0 mm 0.09 in2.3 mm
04:40 PM 81.9°F27.7°C 53.8°F12.1°C 38% 0.7 mph E1.1 kmh E 3.1 mph5.0 kmh 29.14 in986.8 mb 0.00 in0.0 mm 0.00 in0.0 mm 0.09 in2.3 mm
04:45 PM 82.4°F28.0°C 54.3°F12.4°C 38% 2.2 mph E3.5 kmh E 3.8 mph6.1 kmh 29.15 in987.1 mb 0.00 in0.0 mm 0.00 in0.0 mm 0.09 in2.3 mm
04:50 PM 81.5°F27.5°C 53.5°F11.9°C 38% 0.7 mph E1.1 kmh E 3.8 mph6.1 kmh 29.15 in987.1 mb 0.00 in0.0 mm 0.00 in0.0 mm 0.09 in2.3 mm
04:55 PM 81.1°F27.3°C 53.2°F11.8°C 38% Calm Calm 3.8 mph6.1 kmh 29.16 in987.5 mb 0.00 in0.0 mm 0.00 in0.0 mm 0.09 in2.3 mm
05:00 PM 81.3°F27.4°C 53.3°F11.8°C 38% Calm Calm 2.2 mph3.5 kmh 29.16 in987.5 mb 0.00 in0.0 mm 0.00 in0.0 mm 0.09 in2.3 mm
05:05 PM 80.8°F27.1°C 52.8°F11.6°C 38% 3.1 mph E5.0 kmh E 6.9 mph11.1 kmh 29.16 in987.5 mb 0.00 in0.0 mm 0.00 in0.0 mm 0.09 in2.3 mm
05:10 PM 79.9°F26.6°C 52.0°F11.1°C 38% 3.8 mph E6.1 kmh E 8.3 mph13.4 kmh 29.16 in987.5 mb 0.00 in0.0 mm 0.00 in0.0 mm 0.09 in2.3 mm
05:15 PM 79.3°F26.3°C 51.6°F10.9°C 38% 2.2 mph E3.5 kmh E 8.3 mph13.4 kmh 29.16 in987.5 mb 0.00 in0.0 mm 0.00 in0.0 mm 0.09 in2.3 mm
05:20 PM 79.3°F26.3°C 51.6°F10.9°C 38% 2.2 mph E3.5 kmh E 8.3 mph13.4 kmh 29.16 in987.5 mb 0.00 in0.0 mm 0.00 in0.0 mm 0.09 in2.3 mm
05:25 PM 79.2°F26.2°C 51.4°F10.8°C 38% 7.6 mph E12.2 kmh E 10.7 mph17.2 kmh 29.15 in987.1 mb 0.00 in0.0 mm 0.00 in0.0 mm 0.09 in2.3 mm
05:30 PM 79.2°F26.2°C 51.4°F10.8°C 38% 2.2 mph E3.5 kmh E 10.7 mph17.2 kmh 29.16 in987.5 mb 0.00 in0.0 mm 0.00 in0.0 mm 0.09 in2.3 mm
05:35 PM 79.2°F26.2°C 51.4°F10.8°C 38% 3.8 mph E6.1 kmh E 10.7 mph17.2 kmh 29.16 in987.5 mb 0.00 in0.0 mm 0.00 in0.0 mm 0.09 in2.3 mm
05:40 PM 79.3°F26.3°C 51.6°F10.9°C 38% 0.7 mph E1.1 kmh E 10.7 mph17.2 kmh 29.17 in987.8 mb 0.00 in0.0 mm 0.00 in0.0 mm 0.09 in2.3 mm
05:45 PM 79.7°F26.5°C 51.9°F11.1°C 38% 3.8 mph E6.1 kmh E 6.9 mph11.1 kmh 29.17 in987.8 mb 0.00 in0.0 mm 0.00 in0.0 mm 0.09 in2.3 mm
05:50 PM 79.7°F26.5°C 51.9°F11.1°C 38% 6.0 mph E9.7 kmh E 12.1 mph19.5 kmh 29.16 in987.5 mb 0.00 in0.0 mm 0.00 in0.0 mm 0.09 in2.3 mm
05:55 PM 79.7°F26.5°C 51.9°F11.1°C 38% 3.8 mph E6.1 kmh E 12.1 mph19.5 kmh 29.16 in987.5 mb 0.00 in0.0 mm 0.00 in0.0 mm 0.09 in2.3 mm
06:00 PM 79.5°F26.4°C 51.7°F10.9°C 38% 5.4 mph E8.7 kmh E 13.0 mph20.9 kmh 29.16 in987.5 mb 0.00 in0.0 mm 0.00 in0.0 mm 0.09 in2.3 mm
06:05 PM 79.3°F26.3°C 51.6°F10.9°C 38% 3.8 mph E6.1 kmh E 13.0 mph20.9 kmh 29.16 in987.5 mb 0.00 in0.0 mm 0.00 in0.0 mm 0.09 in2.3 mm
06:10 PM 79.3°F26.3°C 51.6°F10.9°C 38% 3.8 mph E6.1 kmh E 7.6 mph12.2 kmh 29.16 in987.5 mb 0.00 in0.0 mm 0.00 in0.0 mm 0.09 in2.3 mm
06:15 PM 79.3°F26.3°C 51.6°F10.9°C 38% 3.1 mph E5.0 kmh E 7.6 mph12.2 kmh 29.16 in987.5 mb 0.00 in0.0 mm 0.00 in0.0 mm 0.09 in2.3 mm
06:20 PM 79.5°F26.4°C 51.7°F10.9°C 38% Calm Calm 6.0 mph9.7 kmh 29.16 in987.5 mb 0.00 in0.0 mm 0.00 in0.0 mm 0.09 in2.3 mm
06:25 PM 80.4°F26.9°C 52.5°F11.4°C 38% Calm Calm 3.8 mph6.1 kmh 29.15 in987.1 mb 0.00 in0.0 mm 0.00 in0.0 mm 0.09 in2.3 mm
06:30 PM 81.0°F27.2°C 53.0°F11.7°C 38% Calm Calm 1.6 mph2.6 kmh 29.16 in987.5 mb 0.00 in0.0 mm 0.00 in0.0 mm 0.09 in2.3 mm
06:35 PM 81.1°F27.3°C 53.2°F11.8°C 38% Calm Calm 1.6 mph2.6 kmh 29.15 in987.1 mb 0.00 in0.0 mm 0.00 in0.0 mm 0.09 in2.3 mm
06:40 PM 81.1°F27.3°C 53.2°F11.8°C 38% Calm Calm 1.6 mph2.6 kmh 29.16 in987.5 mb 0.00 in0.0 mm 0.00 in0.0 mm 0.09 in2.3 mm
06:45 PM 81.1°F27.3°C 53.2°F11.8°C 38% 0.7 mph E1.1 kmh E 1.6 mph2.6 kmh 29.16 in987.5 mb 0.00 in0.0 mm 0.00 in0.0 mm 0.09 in2.3 mm
06:50 PM 80.8°F27.1°C 52.8°F11.6°C 38% Calm Calm 1.6 mph2.6 kmh 29.16 in987.5 mb 0.00 in0.0 mm 0.00 in0.0 mm 0.09 in2.3 mm
06:55 PM 81.5°F27.5°C 53.5°F11.9°C 38% 0.7 mph E1.1 kmh E 2.2 mph3.5 kmh 29.16 in987.5 mb 0.00 in0.0 mm 0.00 in0.0 mm 0.09 in2.3 mm
07:00 PM 81.5°F27.5°C 53.5°F11.9°C 38% 0.7 mph E1.1 kmh E 2.2 mph3.5 kmh 29.17 in987.8 mb 0.00 in0.0 mm 0.00 in0.0 mm 0.09 in2.3 mm
07:05 PM 81.9°F27.7°C 53.8°F12.1°C 38% 0.7 mph E1.1 kmh E 3.8 mph6.1 kmh 29.16 in987.5 mb 0.00 in0.0 mm 0.00 in0.0 mm 0.09 in2.3 mm
07:10 PM 80.8°F27.1°C 52.8°F11.6°C 38% 1.6 mph E2.6 kmh E 3.8 mph6.1 kmh 29.17 in987.8 mb 0.00 in0.0 mm 0.00 in0.0 mm 0.09 in2.3 mm
07:15 PM 79.9°F26.6°C 52.0°F11.1°C 38% Calm Calm 3.1 mph5.0 kmh 29.18 in988.1 mb 0.00 in0.0 mm 0.00 in0.0 mm 0.09 in2.3 mm
07:20 PM 79.3°F26.3°C 51.6°F10.9°C 38% 1.6 mph E2.6 kmh E 3.8 mph6.1 kmh 29.18 in988.1 mb 0.00 in0.0 mm 0.00 in0.0 mm 0.09 in2.3 mm
07:25 PM 78.6°F25.9°C 50.9°F10.5°C 38% 2.2 mph E3.5 kmh E 3.8 mph6.1 kmh 29.18 in988.1 mb 0.00 in0.0 mm 0.00 in0.0 mm 0.09 in2.3 mm
07:30 PM 78.3°F25.7°C 50.6°F10.3°C 38% Calm Calm 3.1 mph5.0 kmh 29.18 in988.1 mb 0.00 in0.0 mm 0.00 in0.0 mm 0.09 in2.3 mm
07:35 PM 78.3°F25.7°C 50.6°F10.3°C 38% 0.7 mph E1.1 kmh E 3.1 mph5.0 kmh 29.18 in988.1 mb 0.00 in0.0 mm 0.00 in0.0 mm 0.09 in2.3 mm
07:40 PM 78.3°F25.7°C 50.6°F10.3°C 38% 0.7 mph E1.1 kmh E 1.6 mph2.6 kmh 29.18 in988.1 mb 0.00 in0.0 mm 0.00 in0.0 mm 0.09 in2.3 mm
07:45 PM 78.3°F25.7°C 50.6°F10.3°C 38% Calm Calm 2.2 mph3.5 kmh 29.19 in988.5 mb 0.00 in0.0 mm 0.00 in0.0 mm 0.09 in2.3 mm
07:50 PM 77.9°F25.5°C 50.3°F10.2°C 38% Calm Calm 2.2 mph3.5 kmh 29.18 in988.1 mb 0.00 in0.0 mm 0.00 in0.0 mm 0.09 in2.3 mm
07:55 PM 77.5°F25.3°C 50.0°F10.0°C 38% Calm Calm 3.1 mph5.0 kmh 29.18 in988.1 mb 0.00 in0.0 mm 0.00 in0.0 mm 0.09 in2.3 mm
08:00 PM 77.5°F25.3°C 50.0°F10.0°C 38% 1.6 mph E2.6 kmh E 3.1 mph5.0 kmh 29.18 in988.1 mb 0.00 in0.0 mm 0.00 in0.0 mm 0.09 in2.3 mm
08:05 PM 77.0°F25.0°C 49.5°F9.7°C 38% 1.6 mph E2.6 kmh E 3.1 mph5.0 kmh 29.18 in988.1 mb 0.00 in0.0 mm 0.00 in0.0 mm 0.09 in2.3 mm
08:10 PM 76.1°F24.5°C 48.7°F9.3°C 38% Calm Calm 4.5 mph7.2 kmh 29.18 in988.1 mb 0.00 in0.0 mm 0.00 in0.0 mm 0.09 in2.3 mm
08:15 PM 75.4°F24.1°C 48.0°F8.9°C 38% Calm Calm 4.5 mph7.2 kmh 29.18 in988.1 mb 0.00 in0.0 mm 0.00 in0.0 mm 0.09 in2.3 mm
08:20 PM 75.0°F23.9°C 47.7°F8.7°C 38% 1.6 mph E2.6 kmh E 2.2 mph3.5 kmh 29.18 in988.1 mb 0.00 in0.0 mm 0.00 in0.0 mm 0.09 in2.3 mm
08:25 PM 74.8°F23.8°C 47.6°F8.7°C 38% 1.6 mph E2.6 kmh E 3.1 mph5.0 kmh 29.18 in988.1 mb 0.00 in0.0 mm 0.00 in0.0 mm 0.09 in2.3 mm
08:30 PM 74.5°F23.6°C 47.2°F8.4°C 38% Calm Calm 3.1 mph5.0 kmh 29.18 in988.1 mb 0.00 in0.0 mm 0.00 in0.0 mm 0.09 in2.3 mm
08:35 PM 74.3°F23.5°C 47.1°F8.4°C 38% Calm Calm 3.1 mph5.0 kmh 29.18 in988.1 mb 0.00 in0.0 mm 0.00 in0.0 mm 0.09 in2.3 mm
08:40 PM 73.9°F23.3°C 46.8°F8.2°C 38% Calm Calm 1.6 mph2.6 kmh 29.18 in988.1 mb 0.00 in0.0 mm 0.00 in0.0 mm 0.09 in2.3 mm
08:45 PM 73.6°F23.1°C 46.4°F8.0°C 38% Calm Calm 0.7 mph1.1 kmh 29.18 in988.1 mb 0.00 in0.0 mm 0.00 in0.0 mm 0.09 in2.3 mm
08:50 PM 73.4°F23.0°C 46.3°F7.9°C 38% 0.7 mph E1.1 kmh E 2.2 mph3.5 kmh 29.19 in988.5 mb 0.00 in0.0 mm 0.00 in0.0 mm 0.09 in2.3 mm
08:55 PM 73.4°F23.0°C 46.3°F7.9°C 38% Calm Calm 2.2 mph3.5 kmh 29.19 in988.5 mb 0.00 in0.0 mm 0.00 in0.0 mm 0.09 in2.3 mm
09:00 PM 73.2°F22.9°C 46.1°F7.8°C 38% 2.2 mph E3.5 kmh E 3.1 mph5.0 kmh 29.19 in988.5 mb 0.00 in0.0 mm 0.00 in0.0 mm 0.09 in2.3 mm
09:05 PM 73.2°F22.9°C 46.1°F7.8°C 38% Calm Calm 3.1 mph5.0 kmh 29.19 in988.5 mb 0.00 in0.0 mm 0.00 in0.0 mm 0.09 in2.3 mm
09:10 PM 72.9°F22.7°C 45.8°F7.7°C 38% Calm Calm 3.1 mph5.0 kmh 29.19 in988.5 mb 0.00 in0.0 mm 0.00 in0.0 mm 0.09 in2.3 mm
09:15 PM 72.7°F22.6°C 45.6°F7.6°C 38% Calm Calm 1.6 mph2.6 kmh 29.20 in988.8 mb 0.00 in0.0 mm 0.00 in0.0 mm 0.09 in2.3 mm
09:20 PM 72.7°F22.6°C 45.6°F7.6°C 38% 2.2 mph E3.5 kmh E 3.1 mph5.0 kmh 29.20 in988.8 mb 0.00 in0.0 mm 0.00 in0.0 mm 0.09 in2.3 mm
09:25 PM 72.5°F22.5°C 45.5°F7.5°C 38% Calm Calm 3.1 mph5.0 kmh 29.20 in988.8 mb 0.00 in0.0 mm 0.00 in0.0 mm 0.09 in2.3 mm
09:30 PM 72.3°F22.4°C 45.3°F7.4°C 38% 0.7 mph E1.1 kmh E 3.1 mph5.0 kmh 29.20 in988.8 mb 0.00 in0.0 mm 0.00 in0.0 mm 0.09 in2.3 mm
09:35 PM 72.3°F22.4°C 45.3°F7.4°C 38% Calm Calm 1.6 mph2.6 kmh 29.20 in988.8 mb 0.00 in0.0 mm 0.00 in0.0 mm 0.09 in2.3 mm
09:40 PM 72.1°F22.3°C 45.2°F7.3°C 38% 1.6 mph E2.6 kmh E 3.1 mph5.0 kmh 29.20 in988.8 mb 0.00 in0.0 mm 0.00 in0.0 mm 0.09 in2.3 mm
09:45 PM 72.0°F22.2°C 45.0°F7.2°C 38% 1.6 mph E2.6 kmh E 3.1 mph5.0 kmh 29.20 in988.8 mb 0.00 in0.0 mm 0.00 in0.0 mm 0.09 in2.3 mm
09:50 PM 71.8°F22.1°C 44.8°F7.1°C 38% 1.6 mph E2.6 kmh E 3.1 mph5.0 kmh 29.21 in989.2 mb 0.00 in0.0 mm 0.00 in0.0 mm 0.09 in2.3 mm
09:55 PM 71.8°F22.1°C 44.8°F7.1°C 38% 0.7 mph E1.1 kmh E 3.8 mph6.1 kmh 29.21 in989.2 mb 0.00 in0.0 mm 0.00 in0.0 mm 0.09 in2.3 mm
10:00 PM 71.8°F22.1°C 44.8°F7.1°C 38% 0.7 mph E1.1 kmh E 4.5 mph7.2 kmh 29.21 in989.2 mb 0.00 in0.0 mm 0.00 in0.0 mm 0.09 in2.3 mm
10:05 PM 71.6°F22.0°C 44.7°F7.1°C 38% Calm Calm 4.5 mph7.2 kmh 29.21 in989.2 mb 0.00 in0.0 mm 0.00 in0.0 mm 0.09 in2.3 mm
10:10 PM 71.4°F21.9°C 44.5°F6.9°C 38% Calm Calm 2.2 mph3.5 kmh 29.21 in989.2 mb 0.00 in0.0 mm 0.00 in0.0 mm 0.09 in2.3 mm
10:15 PM 71.2°F21.8°C 44.4°F6.9°C 38% 0.7 mph E1.1 kmh E 2.2 mph3.5 kmh 29.21 in989.2 mb 0.00 in0.0 mm 0.00 in0.0 mm 0.09 in2.3 mm
10:20 PM 71.1°F21.7°C 44.2°F6.8°C 38% Calm Calm 2.2 mph3.5 kmh 29.21 in989.2 mb 0.00 in0.0 mm 0.00 in0.0 mm 0.09 in2.3 mm
10:25 PM 71.1°F21.7°C 44.2°F6.8°C 38% Calm Calm 1.6 mph2.6 kmh 29.21 in989.2 mb 0.00 in0.0 mm 0.00 in0.0 mm 0.09 in2.3 mm
10:30 PM 71.1°F21.7°C 44.2°F6.8°C 38% Calm Calm 1.6 mph2.6 kmh 29.21 in989.2 mb 0.00 in0.0 mm 0.00 in0.0 mm 0.09 in2.3 mm
10:35 PM 71.1°F21.7°C 44.2°F6.8°C 38% Calm Calm 1.6 mph2.6 kmh 29.21 in989.2 mb 0.00 in0.0 mm 0.00 in0.0 mm 0.09 in2.3 mm
10:40 PM 70.9°F21.6°C 44.0°F6.7°C 38% Calm Calm 1.6 mph2.6 kmh 29.21 in989.2 mb 0.00 in0.0 mm 0.00 in0.0 mm 0.09 in2.3 mm
10:45 PM 70.7°F21.5°C 43.9°F6.6°C 38% 0.7 mph E1.1 kmh E 1.6 mph2.6 kmh 29.20 in988.8 mb 0.00 in0.0 mm 0.00 in0.0 mm 0.09 in2.3 mm
10:50 PM 70.3°F21.3°C 43.6°F6.4°C 38% Calm Calm 1.6 mph2.6 kmh 29.21 in989.2 mb 0.00 in0.0 mm 0.00 in0.0 mm 0.09 in2.3 mm
10:55 PM 70.2°F21.2°C 43.4°F6.3°C 38% Calm Calm 1.6 mph2.6 kmh 29.21 in989.2 mb 0.00 in0.0 mm 0.00 in0.0 mm 0.09 in2.3 mm
11:00 PM 70.3°F21.3°C 43.6°F6.4°C 38% Calm Calm 1.6 mph2.6 kmh 29.21 in989.2 mb 0.00 in0.0 mm 0.00 in0.0 mm 0.09 in2.3 mm
11:05 PM 70.3°F21.3°C 43.6°F6.4°C 38% 0.7 mph E1.1 kmh E 2.2 mph3.5 kmh 29.22 in989.5 mb 0.00 in0.0 mm 0.00 in0.0 mm 0.09 in2.3 mm
11:10 PM 70.2°F21.2°C 43.4°F6.3°C 38% 1.6 mph E2.6 kmh E 2.2 mph3.5 kmh 29.22 in989.5 mb 0.00 in0.0 mm 0.00 in0.0 mm 0.09 in2.3 mm
11:15 PM 70.0°F21.1°C 43.2°F6.2°C 38% 0.7 mph E1.1 kmh E 2.2 mph3.5 kmh 29.21 in989.2 mb 0.00 in0.0 mm 0.00 in0.0 mm 0.09 in2.3 mm
11:20 PM 70.0°F21.1°C 43.2°F6.2°C 38% Calm Calm 2.2 mph3.5 kmh 29.21 in989.2 mb 0.00 in0.0 mm 0.00 in0.0 mm 0.09 in2.3 mm
11:25 PM 69.8°F21.0°C 43.1°F6.2°C 38% 1.6 mph E2.6 kmh E 3.1 mph5.0 kmh 29.22 in989.5 mb 0.00 in0.0 mm 0.00 in0.0 mm 0.09 in2.3 mm
11:30 PM 69.8°F21.0°C 43.1°F6.2°C 38% 1.6 mph E2.6 kmh E 3.1 mph5.0 kmh 29.22 in989.5 mb 0.00 in0.0 mm 0.00 in0.0 mm 0.09 in2.3 mm
11:35 PM 69.8°F21.0°C 43.1°F6.2°C 38% Calm Calm 3.1 mph5.0 kmh 29.22 in989.5 mb 0.01 in0.3 mm 0.12 in3.0 mm 0.11 in2.8 mm
11:40 PM 69.6°F20.9°C 42.9°F6.1°C 38% Calm Calm 3.1 mph5.0 kmh 29.22 in989.5 mb 0.01 in0.3 mm 0.00 in0.0 mm 0.11 in2.8 mm
11:50 PM 69.6°F20.9°C 42.9°F6.1°C 38% Calm Calm 0.7 mph1.1 kmh 29.21 in989.2 mb 0.01 in0.3 mm 0.00 in0.0 mm 0.11 in2.8 mm
11:55 PM 69.6°F20.9°C 42.9°F6.1°C 38% 0.7 mph E1.1 kmh E 3.1 mph5.0 kmh 29.22 in989.5 mb 0.01 in0.3 mm 0.00 in0.0 mm 0.11 in2.8 mm